Time;durP1;ratioP1;P1;durP2;ratioP2;P2;SDS_P1;SDS_P2;PMS_P1;PMS_P2;Temp;Humidity;BMP_temperature;BMP_pressure;BME280_temperature;BME280_humidity;BME280_pressure;Samples;Min_cycle;Max_cycle;Signal;HPM_P1;HPM_P2
2022/01/26 00:08:07;;;;;;;31.37;15.23;;;;;;;2.48;65.45;101455.53;10472259;28;20488;-68
2022/01/26 00:13:09;;;;;;;29.27;14.45;;;;;;;2.62;65.05;101453.75;10470528;28;20044;-68
2022/01/26 00:18:11;;;;;;;29.40;14.88;;;;;;;2.63;65.04;101452.03;10471656;28;20057;-69
2022/01/26 00:29:18;;;;;;;29.23;14.88;;;;;;;2.47;65.33;101458.97;10481155;28;20064;-68
2022/01/26 00:39:16;;;;;;;30.43;15.60;;;;;;;2.48;65.32;101458.09;10471613;28;20053;-68
2022/01/26 00:44:17;;;;;;;33.33;15.93;;;;;;;2.53;65.22;101465.84;10470897;28;20056;-68
2022/01/26 00:49:21;;;;;;;34.65;16.17;;;;;;;2.51;64.93;101462.41;10452294;28;20050;-68
2022/01/26 00:54:23;;;;;;;31.20;14.40;;;;;;;2.37;65.22;101469.34;10471688;28;20049;-68
2022/01/26 00:59:24;;;;;;;31.90;15.95;;;;;;;2.40;65.36;101466.75;10469358;28;20072;-68
2022/01/26 01:04:26;;;;;;;31.83;15.50;;;;;;;2.31;65.61;101470.22;10470528;28;20049;-68
2022/01/26 01:09:33;;;;;;;33.25;16.13;;;;;;;2.26;65.92;101463.31;10470261;28;20096;-68
2022/01/26 01:14:37;;;;;;;36.50;16.33;;;;;;;2.36;65.96;101459.88;10469467;28;20070;-68
2022/01/26 01:19:46;;;;;;;40.53;17.38;;;;;;;2.25;66.06;101462.47;10468045;28;20048;-68
2022/01/26 01:30:09;;;;;;;37.03;17.13;;;;;;;2.36;66.54;101468.47;10468958;28;20143;-68
2022/01/26 01:35:13;;;;;;;38.30;17.73;;;;;;;2.35;66.37;101474.50;10466870;28;20048;-68
2022/01/26 01:40:14;;;;;;;36.42;16.48;;;;;;;2.30;66.30;101468.47;10469132;28;20401;-68
2022/01/26 01:45:16;;;;;;;22.70;13.13;;;;;;;2.33;65.98;101472.78;10468362;28;20063;-68
2022/01/26 01:50:18;;;;;;;22.85;12.57;;;;;;;2.45;65.61;101477.91;10467645;28;20051;-68
2022/01/26 01:55:25;;;;;;;21.45;11.60;;;;;;;2.51;65.16;101476.19;10469030;28;20108;-68
2022/01/26 02:00:28;;;;;;;20.83;11.25;;;;;;;2.56;65.00;101473.59;10468075;28;20044;-68
2022/01/26 02:05:30;;;;;;;24.92;13.32;;;;;;;2.60;64.93;101468.41;10467927;28;20048;-68
2022/01/26 02:10:33;;;;;;;23.77;13.60;;;;;;;2.65;64.63;101468.38;10467389;28;20049;-67
2022/01/26 02:15:47;;;;;;;26.13;13.02;;;;;;;2.66;64.51;101470.97;10467581;28;20143;-68
2022/01/26 02:57:50;;;;;;;24.40;11.38;;;;;;;2.55;65.07;101459.81;10468488;28;20045;-68
2022/01/26 03:08:02;;;;;;;20.15;10.90;;;;;;;2.38;65.35;101440.09;10482475;28;20058;-68
2022/01/26 03:13:13;;;;;;;19.10;11.05;;;;;;;2.38;65.34;101432.34;10482342;28;20087;-68
2022/01/26 03:39:08;;;;;;;22.95;11.82;;;;;;;2.40;65.71;101439.19;10481207;28;20389;-68
2022/01/26 03:44:11;;;;;;;20.10;11.23;;;;;;;2.27;65.72;101431.50;10481165;28;20573;-68
2022/01/26 03:49:14;;;;;;;22.75;11.32;;;;;;;2.15;66.03;101437.53;10481959;28;20110;-68
2022/01/26 03:54:17;;;;;;;18.13;10.60;;;;;;;2.15;65.96;101425.47;10480244;28;20412;-68
2022/01/26 03:59:19;;;;;;;19.98;11.10;;;;;;;2.15;66.06;101412.56;10480984;28;20135;-68
2022/01/26 04:04:20;;;;;;;20.23;11.25;;;;;;;2.14;66.02;101415.16;10477635;28;20041;-68
2022/01/26 04:09:22;;;;;;;21.20;10.93;;;;;;;2.10;66.28;101408.28;10479103;28;20253;-68
2022/01/26 04:14:28;;;;;;;20.17;11.38;;;;;;;2.11;66.48;101400.53;10472726;28;20132;-68
2022/01/26 04:19:33;;;;;;;18.00;11.32;;;;;;;2.13;66.34;101392.81;10473158;28;20130;-68
2022/01/26 04:24:44;;;;;;;18.75;10.98;;;;;;;2.31;66.04;101395.34;10473290;28;20102;-68
2022/01/26 04:29:47;;;;;;;16.83;9.43;;;;;;;2.25;66.14;101408.28;10471785;28;20052;-68
2022/01/26 04:34:49;;;;;;;18.80;9.80;;;;;;;2.35;65.66;101425.47;10488153;28;20045;-68
2022/01/26 04:40:15;;;;;;;17.83;9.35;;;;;;;2.45;65.77;101424.56;10472197;28;20459;-68
2022/01/26 04:45:13;;;;;;;15.57;8.95;;;;;;;2.39;65.38;101411.66;10472747;28;20059;-68
2022/01/26 04:50:15;;;;;;;16.90;9.88;;;;;;;2.39;65.68;101416.84;10477696;28;20059;-67
2022/01/26 04:55:16;;;;;;;18.08;10.52;;;;;;;2.40;65.53;101403.03;10471587;28;20049;-68
2022/01/26 05:00:18;;;;;;;16.27;9.63;;;;;;;2.29;65.61;101388.47;10471286;28;20058;-67
2022/01/26 05:05:20;;;;;;;17.70;9.90;;;;;;;2.13;65.89;101370.44;10471206;28;20047;-67
2022/01/26 05:10:22;;;;;;;16.30;9.48;;;;;;;2.15;65.89;101371.28;10471147;28;20136;-68
2022/01/26 05:15:25;;;;;;;18.90;10.35;;;;;;;2.26;65.85;101353.19;10478483;28;20049;-68
2022/01/26 05:20:27;;;;;;;14.15;8.75;;;;;;;2.30;65.66;101354.91;10470351;28;20053;-67
2022/01/26 05:25:29;;;;;;;15.20;9.00;;;;;;;2.20;65.72;101366.97;10470909;28;20070;-68
2022/01/26 05:30:30;;;;;;;28.63;18.27;;;;;;;2.20;65.79;101358.38;10483790;28;20054;-67
2022/01/26 05:35:32;;;;;;;18.00;11.88;;;;;;;2.14;65.68;101367.00;10473923;28;20044;-68
2022/01/26 05:40:34;;;;;;;17.30;12.70;;;;;;;1.96;65.91;101389.41;10468262;28;20217;-68
2022/01/26 05:45:38;;;;;;;14.93;9.55;;;;;;;2.02;65.67;101389.38;10467904;28;20294;-67
2022/01/26 05:50:49;;;;;;;14.50;9.10;;;;;;;1.94;65.47;101383.38;10468895;28;20072;-68
2022/01/26 05:55:53;;;;;;;15.43;8.50;;;;;;;2.06;65.41;101385.94;10471297;28;20053;-67
2022/01/26 06:00:58;;;;;;;16.30;10.77;;;;;;;2.13;65.15;101398.81;10469372;28;20080;-68
2022/01/26 06:06:00;;;;;;;13.05;7.55;;;;;;;2.20;65.17;101416.03;10467056;28;20131;-68
2022/01/26 06:11:03;;;;;;;14.43;7.93;;;;;;;2.27;65.02;101411.72;10467555;28;20132;-67
2022/01/26 06:16:05;;;;;;;12.98;7.30;;;;;;;2.21;64.44;101427.22;10468679;28;20497;-67
2022/01/26 06:21:08;;;;;;;14.30;8.43;;;;;;;2.09;64.48;101455.63;10451050;28;20114;-67
2022/01/26 06:26:10;;;;;;;13.52;8.43;;;;;;;2.15;64.75;101458.19;10467122;28;20060;-67
2022/01/26 06:31:15;;;;;;;15.43;9.45;;;;;;;2.19;64.69;101465.91;10467503;28;20048;-67
2022/01/26 06:36:17;;;;;;;15.27;9.10;;;;;;;2.30;64.58;101457.31;10468158;28;20052;-68
2022/01/26 06:41:24;;;;;;;21.17;12.65;;;;;;;2.28;64.51;101467.63;10467458;28;20041;-67
2022/01/26 06:46:36;;;;;;;21.02;12.40;;;;;;;2.32;64.72;101473.66;10467726;28;20052;-68
2022/01/26 06:51:37;;;;;;;27.27;14.52;;;;;;;2.42;64.06;101468.44;10467332;28;21119;-67
2022/01/26 06:56:40;;;;;;;35.45;17.88;;;;;;;2.46;63.98;101466.75;10474923;28;20056;-68
2022/01/26 07:01:42;;;;;;;34.17;18.58;;;;;;;2.28;64.36;101452.13;10467544;28;20408;-67
2022/01/26 07:06:43;;;;;;;32.95;19.05;;;;;;;2.38;64.22;101448.66;10468309;28;20052;-68
2022/01/26 07:11:46;;;;;;;36.40;19.30;;;;;;;2.36;64.02;101442.66;10464723;28;20500;-68
2022/01/26 07:22:09;;;;;;;37.53;21.30;;;;;;;2.26;64.12;101438.38;10473249;28;20056;-68
2022/01/26 07:27:11;;;;;;;39.95;20.30;;;;;;;2.35;63.92;101430.63;10481069;28;20611;-67
2022/01/26 07:32:13;;;;;;;37.33;19.92;;;;;;;2.19;63.70;101432.34;10466370;28;20799;-68
2022/01/26 07:37:16;;;;;;;35.30;19.52;;;;;;;2.33;63.98;101429.75;10467331;28;20058;-69
2022/01/26 07:42:18;;;;;;;34.90;19.83;;;;;;;2.53;63.47;101415.06;10465264;28;20044;-69
2022/01/26 07:47:20;;;;;;;40.17;19.98;;;;;;;2.45;63.21;101411.66;10473631;28;20052;-69
2022/01/26 07:52:23;;;;;;;38.22;20.55;;;;;;;2.36;62.82;101436.66;10473973;28;20143;-68
2022/01/26 07:57:26;;;;;;;39.33;19.50;;;;;;;2.34;62.85;101431.47;10500129;28;20052;-69
2022/01/26 08:02:28;;;;;;;42.25;24.00;;;;;;;2.45;62.80;101415.94;10499344;28;21310;-69
2022/01/26 08:07:30;;;;;;;41.50;21.25;;;;;;;2.48;62.68;101432.28;10491058;28;20097;-68
2022/01/26 08:12:32;;;;;;;40.45;21.00;;;;;;;2.56;62.20;101430.53;10486391;28;20473;-69
2022/01/26 08:17:55;;;;;;;40.58;21.55;;;;;;;2.64;61.96;101426.19;10491167;28;20052;-69
2022/01/26 08:22:57;;;;;;;38.67;21.55;;;;;;;2.79;61.85;101420.97;10501571;28;20083;-68
2022/01/26 08:28:12;;;;;;;38.65;20.02;;;;;;;2.73;61.70;101412.41;10482690;28;20084;-68
2022/01/26 08:33:14;;;;;;;35.97;19.35;;;;;;;2.71;61.69;101407.25;10515051;28;20138;-68
2022/01/26 08:38:15;;;;;;;37.63;20.63;;;;;;;2.75;61.54;101411.53;10492159;28;20056;-66
2022/01/26 08:43:17;;;;;;;37.05;18.23;;;;;;;2.70;61.31;101407.25;10471047;28;20139;-65
2022/01/26 08:48:19;;;;;;;32.38;18.17;;;;;;;2.49;61.64;101413.38;10471692;28;20057;-65
2022/01/26 08:53:22;;;;;;;32.17;17.50;;;;;;;2.61;61.76;101418.47;10472148;28;20046;-66
2022/01/26 08:58:24;;;;;;;38.10;19.42;;;;;;;2.58;61.77;101441.72;10470180;28;20052;-66
2022/01/26 09:03:26;;;;;;;37.08;19.83;;;;;;;2.65;61.42;101452.91;10470242;28;20421;-65
2022/01/26 09:08:28;;;;;;;36.50;17.90;;;;;;;2.73;61.64;101458.91;10471670;28;20056;-66
2022/01/26 09:13:31;;;;;;;36.83;19.70;;;;;;;2.81;61.41;101457.13;10477116;28;20048;-65
2022/01/26 09:18:49;;;;;;;35.15;18.67;;;;;;;2.70;61.36;101452.00;10471698;28;20057;-66
2022/01/26 09:23:51;;;;;;;39.72;20.50;;;;;;;2.77;61.44;101432.19;10470724;28;20049;-66
2022/01/26 09:28:53;;;;;;;35.58;19.85;;;;;;;2.63;61.73;101452.91;10478801;28;20144;-65
2022/01/26 09:33:55;;;;;;;33.28;18.60;;;;;;;2.72;61.37;101475.28;10469968;28;20485;-66
2022/01/26 09:38:57;;;;;;;32.28;17.92;;;;;;;2.75;61.56;101462.31;10469739;28;20052;-66
2022/01/26 09:44:02;;;;;;;36.45;18.13;;;;;;;2.88;61.53;101480.38;10469408;28;20488;-66
2022/01/26 09:49:05;;;;;;;32.47;17.02;;;;;;;2.91;61.46;101490.69;10481019;28;20052;-66
2022/01/26 09:54:11;;;;;;;30.52;17.27;;;;;;;2.90;61.33;101485.53;10470268;28;20048;-66
2022/01/26 09:59:15;;;;;;;32.63;17.35;;;;;;;3.06;60.89;101484.59;10469686;28;20053;-67
2022/01/26 10:04:34;;;;;;;36.03;19.25;;;;;;;3.02;60.51;101478.59;10469813;28;20163;-66
2022/01/26 10:20:00;;;;;;;39.72;21.10;;;;;;;2.90;61.76;101483.81;10468442;28;20056;-66
2022/01/26 10:25:06;;;;;;;35.95;19.42;;;;;;;2.81;61.69;101489.00;10468991;28;20052;-65
2022/01/26 10:30:28;;;;;;;33.33;18.40;;;;;;;2.86;61.88;101492.44;10467757;28;20068;-66
2022/01/26 10:35:30;;;;;;;34.28;18.08;;;;;;;2.88;61.55;101488.13;10468219;28;20053;-66
2022/01/26 10:40:32;;;;;;;34.25;18.17;;;;;;;2.77;61.30;101474.38;10468009;28;21070;-66
2022/01/26 10:45:45;;;;;;;30.95;16.77;;;;;;;2.54;61.50;101475.31;10467777;28;20404;-66
2022/01/26 10:51:22;;;;;;;28.40;15.52;;;;;;;2.49;61.18;101483.09;10467598;28;20053;-66
2022/01/26 10:56:09;;;;;;;27.60;15.35;;;;;;;2.56;61.15;101476.19;10468037;28;20106;-66
2022/01/26 11:01:10;;;;;;;26.73;15.95;;;;;;;2.54;61.03;101478.75;10483181;28;20135;-66
2022/01/26 11:06:18;;;;;;;28.35;16.15;;;;;;;2.53;61.24;101471.88;10471409;28;20059;-65
2022/01/26 11:11:22;;;;;;;29.40;16.67;;;;;;;2.66;60.78;101480.47;10467993;28;20126;-66
2022/01/26 11:16:24;;;;;;;29.38;15.98;;;;;;;2.83;60.56;101466.59;10468345;28;20044;-66
2022/01/26 11:21:36;;;;;;;27.65;15.95;;;;;;;2.93;59.95;101463.13;10472013;28;20458;-66
2022/01/26 11:26:39;;;;;;;24.70;14.90;;;;;;;2.97;60.39;101459.66;10462100;28;20054;-66
2022/01/26 11:31:42;;;;;;;29.10;15.55;;;;;;;2.96;60.32;101472.59;10463184;28;20056;-65
2022/01/26 11:36:49;;;;;;;32.88;17.30;;;;;;;2.47;60.74;101489.97;10472737;28;20049;-65
2022/01/26 11:47:33;;;;;;;35.58;18.98;;;;;;;2.56;60.96;101484.75;10393796;28;20058;-66
2022/01/26 11:52:38;;;;;;;36.35;18.85;;;;;;;2.40;60.92;101480.50;10471908;28;20048;-66
2022/01/26 11:57:45;;;;;;;37.38;18.77;;;;;;;2.19;61.83;101486.56;10470279;28;20052;-66
2022/01/26 12:07:54;;;;;;;36.33;18.25;;;;;;;2.41;61.34;101482.25;10470220;28;20044;-66
2022/01/26 12:13:08;;;;;;;39.67;19.02;;;;;;;2.55;60.71;101485.66;10471707;28;20049;-65
2022/01/26 12:18:39;;;;;;;34.05;17.48;;;;;;;2.73;60.53;101488.19;10470447;28;20278;-66
2022/01/26 12:45:23;;;;;;;48.83;21.95;;;;;;;3.11;59.47;101471.66;10477519;28;20048;-66
2022/01/26 12:50:26;;;;;;;35.42;19.45;;;;;;;3.03;59.45;101469.09;10469822;28;20508;-66
2022/01/26 12:55:32;;;;;;;51.08;28.83;;;;;;;3.09;59.16;101483.75;10469347;28;20059;-66
2022/01/26 13:00:45;;;;;;;35.17;18.77;;;;;;;3.15;59.20;101486.28;10483927;28;20043;-66
2022/01/26 13:05:47;;;;;;;36.42;18.98;;;;;;;3.22;59.32;101477.63;10466765;28;20048;-66
2022/01/26 13:10:49;;;;;;;37.15;18.77;;;;;;;3.15;59.63;101458.72;10469711;28;20052;-65
2022/01/26 13:16:05;;;;;;;34.85;18.73;;;;;;;3.30;59.55;101442.25;10469399;28;20127;-65
2022/01/26 13:38:02;;;;;;;33.33;18.20;;;;;;;3.27;59.81;101419.00;10471599;28;20060;-66
2022/01/26 13:53:49;;;;;;;33.63;17.52;;;;;;;3.17;59.71;101415.63;10467346;28;20110;-66
2022/01/26 14:04:05;;;;;;;35.28;18.30;;;;;;;3.33;59.75;101416.38;10471329;28;20956;-66
2022/01/26 14:09:07;;;;;;;34.88;18.42;;;;;;;3.37;60.02;101415.50;10451435;28;20053;-66
2022/01/26 14:14:11;;;;;;;33.70;18.38;;;;;;;3.18;59.82;101422.50;10465305;28;20044;-66
2022/01/26 14:24:32;;;;;;;33.92;18.55;;;;;;;3.13;60.41;101418.22;10474693;28;20056;-65
2022/01/26 14:29:41;;;;;;;35.45;19.10;;;;;;;3.10;60.25;101408.75;10464426;28;20049;-66
2022/01/26 15:12:14;;;;;;;33.05;17.88;;;;;;;2.70;60.58;101371.94;10466676;28;20544;-66
2022/01/26 15:33:35;;;;;;;29.63;16.13;;;;;;;2.63;60.46;101382.31;10471378;28;20130;-66
2022/01/26 16:05:40;;;;;;;31.27;17.02;;;;;;;3.00;60.91;101415.72;10465350;28;20036;-65
2022/01/26 17:24:28;;;;;;;32.60;18.60;;;;;;;2.96;59.58;101426.06;10503127;28;20071;-68
2022/01/26 18:49:30;;;;;;;36.92;18.52;;;;;;;2.53;60.63;101420.22;10467676;28;20048;-69
2022/01/26 18:54:34;;;;;;;36.42;20.77;;;;;;;2.66;60.49;101413.31;10465043;28;20060;-69
2022/01/26 18:59:37;;;;;;;35.20;20.60;;;;;;;2.65;60.55;101404.69;10464137;28;20052;-69
2022/01/26 19:04:48;;;;;;;39.70;22.38;;;;;;;2.65;60.43;101393.50;10464078;28;20044;-68
2022/01/26 19:09:51;;;;;;;32.88;18.67;;;;;;;2.47;60.77;101388.41;10476897;28;20074;-69
2022/01/26 19:14:58;;;;;;;35.35;19.20;;;;;;;2.45;60.95;101380.66;10464164;28;20057;-69
2022/01/26 19:25:18;;;;;;;32.40;18.60;;;;;;;2.44;60.84;101360.03;10459670;28;20052;-68
2022/01/26 19:51:27;;;;;;;29.45;16.73;;;;;;;2.39;60.65;101349.72;10474844;28;20102;-68
2022/01/26 19:56:29;;;;;;;25.55;15.32;;;;;;;2.36;61.06;101362.63;10469913;28;20109;-68
2022/01/26 20:01:31;;;;;;;24.40;15.40;;;;;;;2.45;60.65;101359.16;10469359;28;20143;-68
2022/01/26 20:06:33;;;;;;;26.13;15.68;;;;;;;2.51;60.26;101361.69;10478682;28;20078;-68
2022/01/26 20:11:41;;;;;;;23.80;14.50;;;;;;;2.46;60.35;101361.72;10480866;28;20048;-68
2022/01/26 20:16:43;;;;;;;28.92;16.90;;;;;;;2.51;60.29;101356.53;10479195;28;20499;-68
2022/01/26 20:21:46;;;;;;;24.70;15.52;;;;;;;2.37;60.24;101348.84;10471889;28;20052;-68
2022/01/26 20:26:51;;;;;;;26.60;15.55;;;;;;;2.44;60.39;101353.13;10468381;28;20064;-67
2022/01/26 20:31:53;;;;;;;25.33;15.55;;;;;;;2.38;60.26;101347.16;10474982;28;20060;-67
2022/01/26 20:36:56;;;;;;;29.60;17.50;;;;;;;2.33;60.40;101338.53;10469342;28;20048;-68
2022/01/26 20:42:01;;;;;;;25.50;14.73;;;;;;;2.38;60.55;101345.41;10467734;28;20527;-67
2022/01/26 20:47:04;;;;;;;25.80;15.43;;;;;;;2.37;60.35;101345.41;10484575;28;20050;-67
2022/01/26 20:52:06;;;;;;;26.92;16.33;;;;;;;2.41;60.32;101340.25;10469779;28;20048;-67
2022/01/26 20:57:08;;;;;;;27.95;16.95;;;;;;;2.33;60.30;101338.53;10482018;28;20049;-67
2022/01/26 21:02:09;;;;;;;26.00;15.52;;;;;;;2.28;60.41;101338.56;10468478;28;20056;-67
2022/01/26 21:07:11;;;;;;;23.95;14.85;;;;;;;2.30;60.23;101336.81;10467402;28;20526;-67
2022/01/26 21:12:13;;;;;;;32.45;23.65;;;;;;;2.20;60.39;101333.44;10484571;28;20415;-67
2022/01/26 21:17:15;;;;;;;28.13;17.25;;;;;;;2.25;60.33;101324.81;10475330;28;20527;-66
2022/01/26 21:22:17;;;;;;;26.15;16.38;;;;;;;2.09;60.36;101326.59;10467894;28;20167;-66
2022/01/26 21:27:19;;;;;;;25.98;16.02;;;;;;;2.10;60.49;101326.59;10467932;28;20049;-67
2022/01/26 21:32:21;;;;;;;27.50;16.40;;;;;;;2.09;60.35;101331.75;10466211;28;20066;-66
2022/01/26 21:37:23;;;;;;;30.10;16.95;;;;;;;2.08;60.37;101323.16;10464805;28;20044;-67
2022/01/26 21:42:25;;;;;;;30.55;16.52;;;;;;;2.02;60.47;101327.47;10474394;28;20048;-67
2022/01/26 21:47:27;;;;;;;28.17;16.95;;;;;;;1.89;60.62;101326.63;10466233;28;20483;-67
2022/01/26 21:52:30;;;;;;;28.15;16.27;;;;;;;1.92;60.42;101312.88;10465891;28;20052;-67
2022/01/26 21:57:32;;;;;;;26.50;15.50;;;;;;;1.86;60.58;101311.19;10474111;28;20092;-67
2022/01/26 22:02:35;;;;;;;26.08;15.82;;;;;;;1.79;60.64;101303.44;10472745;28;20043;-67
2022/01/26 22:07:38;;;;;;;27.35;15.63;;;;;;;1.67;60.89;101301.75;10484603;28;20159;-67
2022/01/26 22:12:42;;;;;;;26.83;16.02;;;;;;;1.62;60.84;101295.75;10478197;28;20045;-67
2022/01/26 22:17:44;;;;;;;25.60;16.25;;;;;;;1.70;61.05;101293.16;10467103;28;20044;-67
2022/01/26 22:22:47;;;;;;;27.70;16.80;;;;;;;1.83;60.63;101289.66;10465677;28;20045;-67
2022/01/26 22:27:51;;;;;;;29.30;17.08;;;;;;;1.68;60.74;101289.72;10471924;28;20053;-67
2022/01/26 22:32:57;;;;;;;28.23;16.52;;;;;;;1.70;60.92;101285.41;10453465;28;20079;-67
2022/01/26 22:38:00;;;;;;;28.83;18.00;;;;;;;1.76;60.51;101291.44;10473960;28;20048;-66
2022/01/26 22:43:03;;;;;;;28.10;17.63;;;;;;;1.84;60.87;101296.56;10468189;28;20106;-67
2022/01/26 22:48:10;;;;;;;30.88;19.25;;;;;;;2.04;60.39;101295.63;10463815;28;20044;-67
2022/01/26 22:53:12;;;;;;;32.45;19.60;;;;;;;1.93;60.35;101293.97;10466189;28;20424;-66
2022/01/26 22:58:15;;;;;;;34.03;19.92;;;;;;;1.81;60.79;101288.81;10465656;28;20040;-67
2022/01/26 23:03:17;;;;;;;35.72;20.08;;;;;;;1.65;60.80;101282.84;10484101;28;20044;-67
2022/01/26 23:08:43;;;;;;;34.47;21.05;;;;;;;1.89;60.46;101287.09;10488068;28;20141;-67
2022/01/26 23:13:46;;;;;;;37.47;20.75;;;;;;;2.03;60.25;101277.59;10465635;28;20079;-67
2022/01/26 23:19:07;;;;;;;34.70;19.48;;;;;;;1.77;60.16;101282.81;10494654;28;20060;-66
2022/01/26 23:24:10;;;;;;;41.13;20.85;;;;;;;1.70;60.62;101285.41;10480125;28;20050;-67
2022/01/26 23:29:45;;;;;;;40.53;21.60;;;;;;;1.72;60.63;101270.81;10484207;28;20049;-67
2022/01/26 23:35:07;;;;;;;37.85;20.30;;;;;;;1.76;60.66;101277.66;10480677;28;20048;-66
2022/01/26 23:40:23;;;;;;;41.58;20.95;;;;;;;1.76;60.72;101280.25;10471621;28;20455;-66
